FOON/MVB METAR and TAF weather

Enter ICAO airport designator
Station Type Date Time Source
FOON METAR 2018/06/24 18:00 UTC NOAA

FOON 241800Z 12006KT 6000 +TSRA OVC011 FEW020CB 22/21 Q1013


Station Type Date Time Source
FOON Decoded METAR 2018/06/24 18:00 UTC NOAA

Franceville / Mvengue, Gabon (FOON) 01-39S 013-26E
Jun 24, 2018 - 02:00 PM EDT / 2018.06.24 1800 UTC
Wind: from the ESE (120 degrees) at 7 MPH (6 KT):0
Visibility: 3 mile(s):0
Sky conditions: overcast
Weather: heavy rain with thunder; Cumulonimbus clouds observed
Temperature: 71 F (22 C)
Dew Point: 69 F (21 C)
Relative Humidity: 94%
Pressure (altimeter): 29.91 in. Hg (1013 hPa)
ob: FOON 241800Z 12006KT 6000 +TSRA OVC011 FEW020CB 22/21 Q1013
cycle: 18

Station Type Date Time Source
FOON TAF 2012/02/17 18:21 UTC NOAA

TAF TAF FOON 151600Z 1518/1618 20004KT 9999 BKN006
TEMPO 1603/1607 0200 FG OVC002
BECMG 1612/1614 TS SCT015 FEW020CB BKN030


Example: see airport list